Flight Track Log - Related Links

Times and Time Zones

All times are in EDT time to prevent confusion due to time zone crossing. See the N53NW flight status page for this flight to view local times or setup timezone preferences in your user account.

Time Position Orientation Groundspeed Altitude Reporting Facility
EDT Latitude Longitude Course Direction KTS MPH feet Rate Location/Type
Wed 11:01:27 AM 41.0333 -73.7000 252° West 192 221 2,100  Level New York TRACON
Wed 11:02:27 AM 41.0167 -73.7667 252° West 210 242 4,100 2,050 Climbing New York TRACON
Wed 11:03:27 AM 41.0000 -73.8500 255° West 240 276 6,200 1,450 Climbing New York TRACON
Wed 11:04:27 AM 40.9500 -73.9000 217° Southwest 249 287 7,000 1,500 Climbing New York TRACON
Wed 11:05:27 AM 40.8833 -73.9333 201° Southwest 239 275 9,200 2,200 Climbing New York TRACON
Wed 11:06:27 AM 40.8167 -73.9833 210° Southwest 251 289 11,400 1,400 Climbing New York TRACON
Wed 11:07:27 AM 40.7500 -74.0167 201° Southwest 280 322 12,000 300 Climbing New York TRACON
Wed 11:08:27 AM 40.6833 -74.0667 210° Southwest 289 333 12,000 250 Level New York TRACON
Wed 11:09:27 AM 40.6167 -74.1000 201° Southwest 292 336 12,500 1,573 Climbing New York TRACON
Wed 11:11:11 AM 40.4775 -74.1353 191° South 290 334 16,300 2,185 Climbing Washington Center
Wed 11:12:09 AM 40.4028 -74.1561 192° South 283 326 18,400 2,067 Climbing Washington Center
Wed 11:13:10 AM 40.3239 -74.1739 190° South 283 326 20,400 1,934 Climbing Washington Center
Wed 11:14:10 AM 40.2469 -74.2000 195° South 283 326 22,300 1,736 Climbing Washington Center
Wed 11:15:11 AM 40.1811 -74.2611 215° Southwest 283 326 23,900 843 Climbing Washington Center
Wed 11:16:11 AM 40.1108 -74.3247 215° Southwest 297 342 24,000 153 Climbing Washington Center
Wed 11:17:09 AM 40.0408 -74.3964 218° Southwest 317 365 24,200 915 Climbing Washington Center
Wed 11:18:09 AM 39.9728 -74.4625 217° Southwest 317 365 25,800 1,388 Climbing Washington Center
Wed 11:19:10 AM 39.9128 -74.5203 216° Southwest 317 365 27,000 1,240 Climbing Washington Center
Wed 11:20:10 AM 39.8447 -74.5861 217° Southwest 312 359 28,300 1,240 Climbing Washington Center
Wed 11:21:11 AM 39.7722 -74.6547 216° Southwest 317 365 29,500 1,210 Climbing Washington Center
Wed 11:22:09 AM 39.6978 -74.7231 215° Southwest 323 372 30,700 1,220 Climbing Washington Center
Wed 11:23:09 AM 39.6233 -74.7994 218° Southwest 336 387 31,900 1,240 Climbing Washington Center
Wed 11:24:10 AM 39.5489 -74.8703 216° Southwest 341 392 33,200 1,190 Climbing Washington Center
Wed 11:25:10 AM 39.4764 -74.9408 217° Southwest 341 392 34,300 1,100 Climbing Washington Center
Wed 11:26:10 AM 39.4017 -75.0089 215° Southwest 336 387 35,400 1,041 Climbing Washington Center
Wed 11:27:11 AM 39.3269 -75.0764 215° Southwest 336 387 36,400 992 Climbing Washington Center
Wed 11:28:11 AM 39.2500 -75.1386 212° Southwest 336 387 37,400 1,017 Climbing Washington Center
Wed 11:29:09 AM 39.1711 -75.2008 211° Southwest 336 387 38,400 1,017 Climbing Washington Center
Wed 11:30:09 AM 39.0733 -75.2281 192° South 341 392 39,400 793 Climbing Washington Center
Wed 11:31:10 AM 38.9794 -75.2739 201° Southwest 354 407 40,000 295 Climbing Washington Center
Wed 11:32:11 AM 38.8753 -75.3117 196° South 374 430 40,000  Level Washington Center
Wed 11:33:09 AM 38.7650 -75.3519 196° South 394 453 40,000  Level Washington Center
Wed 11:34:10 AM 38.6567 -75.3922 196° South 407 468 40,000  Level Washington Center
Wed 11:35:11 AM 38.5464 -75.4378 198° South 412 474 40,000  Level Washington Center
Wed 11:36:11 AM 38.4336 -75.4778 196° South 422 486 40,000  Level Washington Center
Wed 11:37:10 AM 38.3294 -75.5256 200° South 416 479 40,000  Level Washington Center
Wed 11:38:10 AM 38.2314 -75.6156 216° Southwest 396 456 40,000  Level Washington Center
Wed 11:39:11 AM 38.1458 -75.6972 217° Southwest 396 456 40,000  Level Washington Center
Wed 11:40:09 AM 38.0603 -75.7764 216° Southwest 391 450 40,000  Level Washington Center
Wed 11:41:10 AM 37.9728 -75.8578 216° Southwest 391 450 40,000  Level Washington Center
Wed 11:42:10 AM 37.8847 -75.9417 217° Southwest 391 450 40,000  Level Washington Center
Wed 11:43:11 AM 37.8011 -76.0203 217° Southwest 391 450 40,000  Level Washington Center
Wed 11:44:10 AM 37.7258 -76.0986 219° Southwest 391 450 40,000  Level Washington Center
Wed 11:45:11 AM 37.6275 -76.1792 213° Southwest 397 457 40,000  Level Washington Center
Wed 11:46:11 AM 37.5394 -76.2597 216° Southwest 392 451 40,000  Level Washington Center
Wed 11:47:09 AM 37.4514 -76.3400 216° Southwest 392 451 40,000  Level Washington Center
Wed 11:48:10 AM 37.3631 -76.4203 216° Southwest 392 451 40,000  Level Washington Center
Wed 11:49:10 AM 37.2772 -76.5003 217° Southwest 392 451 40,000  Level Washington Center
Wed 11:50:11 AM 37.1889 -76.5772 215° Southwest 392 451 40,000  Level Washington Center
Wed 11:51:10 AM 37.1006 -76.6594 217° Southwest 392 451 40,000  Level Washington Center
Wed 11:52:11 AM 37.0122 -76.7417 217° Southwest 392 451 40,000  Level Washington Center
Wed 11:53:11 AM 36.9258 -76.8183 215° Southwest 392 451 40,000  Level Washington Center
Wed 11:54:09 AM 36.8375 -76.8972 216° Southwest 392 451 40,000  Level Washington Center
Wed 11:55:10 AM 36.7511 -76.9761 216° Southwest 387 445 40,000  Level Washington Center
Wed 11:56:10 AM 36.6686 -77.0550 217° Southwest 387 445 40,000  Level Washington Center
Wed 11:57:12 AM 36.5842 -77.1336 217° Southwest 387 445 40,000  Level Washington Center
Wed 11:58:10 AM 36.4978 -77.2172 218° Southwest 387 445 40,000  Level Washington Center
Wed 11:59:10 AM 36.4153 -77.2981 218° Southwest 387 445 40,000  Level Washington Center
Wed 12:00:11 PM 36.3264 -77.3761 215° Southwest 392 451 40,000  Level Washington Center
Wed 12:01:11 PM 36.2417 -77.4567 217° Southwest 392 451 40,000  Level Washington Center
Wed 12:02:09 PM 36.1611 -77.5344 218° Southwest 386 444 40,000  Level Washington Center
Wed 12:03:10 PM 36.0742 -77.6169 217° Southwest 386 444 40,000  Level Washington Center
Wed 12:04:10 PM 35.9872 -77.6969 217° Southwest 391 450 40,000  Level Washington Center
Wed 12:05:10 PM 35.8942 -77.7714 213° Southwest 391 450 40,000  Level Washington Center
Wed 12:06:11 PM 35.8011 -77.8431 212° Southwest 401 461 40,000  Level Washington Center
Wed 12:07:11 PM 35.7100 -77.9122 212° Southwest 401 461 40,000  Level Washington Center
Wed 12:08:09 PM 35.6167 -77.9861 213° Southwest 396 456 40,000  Level Washington Center
Wed 12:09:09 PM 35.5236 -78.0572 212° Southwest 396 456 40,000  Level Washington Center
Wed 12:10:10 PM 35.4303 -78.1283 212° Southwest 396 456 40,000  Level Washington Center
Wed 12:11:10 PM 35.3347 -78.2017 212° Southwest 396 456 40,000  Level Washington Center
Wed 12:12:10 PM 35.2456 -78.2778 215° Southwest 396 456 40,000  Level Washington Center
Wed 12:13:11 PM 35.1581 -78.3636 219° Southwest 402 463 40,000  Level Washington Center
Wed 12:14:11 PM 35.0747 -78.4444 218° Southwest 397 457 40,000  Level Washington Center
Wed 12:15:09 PM 34.9892 -78.5278 219° Southwest 397 457 40,000  Level Washington Center
Wed 12:16:09 PM 34.9058 -78.6108 219° Southwest 397 457 40,000  Level Washington Center
Wed 12:17:10 PM 34.8394 -78.6767 219° Southwest 391 450 40,000  Level Washington Center
Wed 12:18:53 PM 34.6825 -78.8253 218° Southwest 393 452 40,000  Level Jacksonville Center
Wed 12:19:53 PM 34.5994 -78.9050 218° Southwest 393 452 40,000  Level Jacksonville Center
Wed 12:20:53 PM 34.5167 -78.9869 219° Southwest 393 452 40,000  Level Jacksonville Center
Wed 12:21:53 PM 34.4336 -79.0736 221° Southwest 393 452 40,000 -200 Level Jacksonville Center
Wed 12:22:53 PM 34.3506 -79.1503 217° Southwest 393 452 39,600 -800 Descending Jacksonville Center
Wed 12:23:53 PM 34.2653 -79.2344 219° Southwest 393 452 38,400 -1,200 Descending Jacksonville Center
Wed 12:24:53 PM 34.1778 -79.3133 217° Southwest 393 452 37,200 -1,200 Descending Jacksonville Center
Wed 12:25:53 PM 34.0906 -79.3972 219° Southwest 393 452 36,000 -1,250 Descending Jacksonville Center
Wed 12:26:53 PM 34.0008 -79.4783 217° Southwest 388 447 34,700 -1,250 Descending Jacksonville Center
Wed 12:27:53 PM 33.9114 -79.5669 219° Southwest 394 453 33,500 -1,200 Descending Jacksonville Center
Wed 12:28:53 PM 33.8219 -79.6503 218° Southwest 405 466 32,300 -1,200 Descending Jacksonville Center
Wed 12:29:53 PM 33.7342 -79.7333 218° Southwest 411 473 31,100 -1,150 Descending Jacksonville Center
Wed 12:30:53 PM 33.6425 -79.8214 219° Southwest 411 473 30,000 -1,000 Descending Jacksonville Center
Wed 12:31:53 PM 33.5528 -79.9044 218° Southwest 411 473 29,100 -1,250 Descending Jacksonville Center
Wed 12:32:53 PM 33.4647 -79.9844 217° Southwest 411 473 27,500 -1,700 Descending Jacksonville Center
Wed 12:33:53 PM 33.3811 -80.0644 219° Southwest 411 473 25,700 -1,850 Descending Jacksonville Center
Wed 12:34:53 PM 33.2992 -80.1392 217° Southwest 401 461 23,800 -2,000 Descending Jacksonville Center
Wed 12:35:53 PM 33.2236 -80.2108 218° Southwest 375 432 21,700 -2,000 Descending Jacksonville Center
Wed 12:36:53 PM 33.1417 -80.2803 215° Southwest 363 418 19,800 -1,950 Descending Jacksonville Center
Wed 12:37:53 PM 33.0700 -80.3494 219° Southwest 356 410 17,800 -1,900 Descending Jacksonville Center
Wed 12:38:53 PM 32.9981 -80.4158 218° Southwest 350 403 16,000 -1,900 Descending Jacksonville Center
Wed 12:39:53 PM 32.9264 -80.4797 217° Southwest 345 397 14,000 -2,000 Descending Jacksonville Center
Wed 12:40:53 PM 32.8567 -80.5458 219° Southwest 334 384 12,000 -1,500 Descending Jacksonville Center
Wed 12:41:53 PM 32.7889 -80.6069 217° Southwest 328 377 11,000 -500 Descending Jacksonville Center
Wed 12:42:53 PM 32.7211 -80.6678 217° Southwest 318 366 11,000  Level Jacksonville Center
Wed 12:43:53 PM 32.6533 -80.7286 217° Southwest 318 366 11,000  Level Jacksonville Center
Wed 12:44:53 PM 32.5875 -80.7894 218° Southwest 318 366 11,000  Level Jacksonville Center
Wed 12:45:53 PM 32.5281 -80.8575 224° Southwest 308 354 11,000  Level Jacksonville Center
Wed 12:46:53 PM 32.4897 -80.9469 243° Southwest 301 346 11,000  Level Jacksonville Center
Wed 12:47:53 PM 32.4514 -81.0314 242° Southwest 301 346 11,000 -300 Level Jacksonville Center
Wed 12:48:53 PM 32.4131 -81.1158 242° Southwest 301 346 10,400 -1,100 Descending Jacksonville Center
Wed 12:49:53 PM 32.3744 -81.2100 244° Southwest 295 339 8,800 -1,550 Descending Jacksonville Center
Wed 12:50:53 PM 32.3461 -81.2794 244° Southwest 271 312 7,300 -1,550 Descending Jacksonville Center
Wed 12:51:53 PM 32.3011 -81.3342 226° Southwest 256 295 5,700 -2,300 Descending Jacksonville Center
Wed 12:52:53 PM 32.2217 -81.3406 184° South 239 275 2,700 -1,900 Descending Jacksonville Center
Wed 12:53:53 PM 32.1592 -81.3417 181° South 245 282 1,900 -800 Descending Jacksonville Center
Wed 12:55:00 PM 32.1311 -81.2177 North  Level Estimated
Wed 01:02:00 PM 32.1167 -81.2000 North  Level FlightAware Approximate
Wed 01:03:00 PM 32.1276 -81.2021 North  Level Estimated
Wed 01:04:00 PM 32.1276 -81.2021 North  Level Estimated
Wed 01:05:00 PM 32.1276 -81.2021 North  Level Estimated
Wed 01:06:00 PM 32.1276 -81.2021 North  Level Estimated
Wed 01:07:00 PM 32.1276 -81.2021 North  Level Estimated
Wed 01:08:00 PM 32.1276 -81.2021 North  Level Estimated

Login

Don't have an account? Register now (free) for customized features, flight alerts, and more!